Time;durP1;ratioP1;P1;durP2;ratioP2;P2;SDS_P1;SDS_P2;PMS_P1;PMS_P2;Temp;Humidity;BMP_temperature;BMP_pressure;BME280_temperature;BME280_humidity;BME280_pressure;Samples;Min_cycle;Max_cycle;Signal;HPM_P1;HPM_P2
2021/05/03 00:00:35;;;;;;;3.85;1.90;;;384.50;1561.60;;;;;;5126047;28;20039;-76
2021/05/03 00:03:00;;;;;;;5.68;2.38;;;384.50;1561.60;;;;;;5117684;28;20015;-76
2021/05/03 00:05:27;;;;;;;2.92;1.80;;;384.60;1561.60;;;;;;5111612;28;20487;-76
2021/05/03 00:07:53;;;;;;;7.22;2.15;;;384.60;1561.60;;;;;;5111524;28;20068;-77
2021/05/03 00:10:20;;;;;;;6.78;2.63;;;384.60;1561.60;;;;;;5103780;28;20073;-76
2021/05/03 00:12:46;;;;;;;3.45;2.38;;;384.50;1587.20;;;;;;5102406;28;20012;-77
2021/05/03 00:15:13;;;;;;;4.68;2.22;;;384.70;1561.60;;;;;;5106240;28;20471;-77
2021/05/03 00:17:40;;;;;;;3.65;2.28;;;384.60;1561.60;;;;;;5100055;28;20028;-77
2021/05/03 00:20:07;;;;;;;4.47;2.67;;;384.40;1587.20;;;;;;5104795;28;20467;-75
2021/05/03 00:22:33;;;;;;;4.40;2.33;;;384.50;1587.20;;;;;;5111206;28;20567;-76
2021/05/03 00:24:59;;;;;;;3.55;2.47;;;384.20;1638.40;;;;;;5114163;28;20015;-76
2021/05/03 00:27:25;;;;;;;4.35;2.63;;;384.30;1612.80;;;;;;5111245;28;20110;-76
2021/05/03 00:29:50;;;;;;;4.28;2.83;;;384.30;1612.80;;;;;;5096459;28;20020;-76
2021/05/03 00:32:16;;;;;;;8.70;2.83;;;384.20;1638.40;;;;;;5110799;28;20020;-77
2021/05/03 00:34:42;;;;;;;6.65;2.65;;;384.10;1638.40;;;;;;5111037;28;20019;-75
2021/05/03 00:37:08;;;;;;;3.58;2.40;;;384.10;1638.40;;;;;;5113838;28;20732;-76
2021/05/03 00:39:34;;;;;;;4.75;2.88;;;359.30;1689.60;;;;;;5113629;28;20065;-77
2021/05/03 00:42:00;;;;;;;4.10;2.40;;;359.20;1689.60;;;;;;5114039;28;20586;-77
2021/05/03 00:44:27;;;;;;;4.65;2.70;;;358.90;1740.80;;;;;;5110603;28;20034;-76
2021/05/03 00:46:56;;;;;;;10.63;5.70;;;359.00;1689.60;;;;;;5105833;28;20064;-76
2021/05/03 00:49:22;;;;;;;61.17;39.30;;;359.10;1689.60;;;;;;5113565;28;20072;-75
2021/05/03 00:51:47;;;;;;;5.93;3.80;;;359.00;1689.60;;;;;;5112952;28;20118;-77
2021/05/03 00:54:13;;;;;;;3.67;2.67;;;358.90;1715.20;;;;;;5111241;28;20463;-76
2021/05/03 00:56:39;;;;;;;5.25;4.13;;;358.80;1740.80;;;;;;5126509;27;20027;-76
2021/05/03 00:59:05;;;;;;;4.30;3.17;;;358.70;1740.80;;;;;;5104252;28;20054;-75
2021/05/03 01:01:30;;;;;;;4.63;3.22;;;358.50;1766.40;;;;;;5104351;28;20032;-74
2021/05/03 01:03:56;;;;;;;3.95;2.50;;;358.50;1766.40;;;;;;5109211;28;20452;-74
2021/05/03 01:06:22;;;;;;;4.07;2.38;;;358.60;1740.80;;;;;;5099341;28;20032;-74
2021/05/03 01:08:48;;;;;;;7.07;2.60;;;358.70;1740.80;;;;;;5104130;28;20024;-75
2021/05/03 01:11:13;;;;;;;4.20;2.80;;;358.70;1740.80;;;;;;5113172;28;20088;-75
2021/05/03 01:13:40;;;;;;;3.70;2.50;;;358.70;1740.80;;;;;;5112502;28;20016;-75
2021/05/03 01:16:06;;;;;;;4.50;2.85;;;358.70;1740.80;;;;;;5111137;28;20027;-75
2021/05/03 01:18:35;;;;;;;5.47;3.15;;;358.60;1766.40;;;;;;5122108;27;20022;-75
2021/05/03 01:21:01;;;;;;;4.97;3.28;;;358.60;1766.40;;;;;;5098058;28;20086;-75
2021/05/03 01:23:27;;;;;;;6.95;3.08;;;358.70;1740.80;;;;;;5097694;28;20032;-77
2021/05/03 01:25:53;;;;;;;4.45;3.08;;;358.60;1766.40;;;;;;5101930;28;20413;-77
2021/05/03 01:28:19;;;;;;;4.18;3.00;;;358.70;1740.80;;;;;;5112837;28;20024;-77
2021/05/03 01:30:46;;;;;;;4.88;2.97;;;333.70;1792.00;;;;;;5101814;28;20061;-75
2021/05/03 01:33:13;;;;;;;5.18;4.00;;;333.50;1792.00;;;;;;5110931;28;20027;-75
2021/05/03 01:35:41;;;;;;;13.82;4.00;;;333.70;1766.40;;;;;;5112776;28;20043;-75
2021/05/03 01:38:08;;;;;;;5.25;3.70;;;333.40;1792.00;;;;;;5101153;28;20032;-75
2021/05/03 01:40:37;;;;;;;5.85;3.50;;;333.30;1817.60;;;;;;5103033;28;20387;-76
2021/05/03 01:43:15;;;;;;;6.28;3.08;;;333.30;1817.60;;;;;;5098027;28;20024;-75
2021/05/03 01:45:42;;;;;;;4.68;2.85;;;333.30;1817.60;;;;;;5108166;28;20069;-75
2021/05/03 01:48:09;;;;;;;6.65;3.67;;;333.30;1817.60;;;;;;5109520;28;20061;-75
2021/05/03 01:50:36;;;;;;;4.10;2.72;;;333.70;1792.00;;;;;;5107974;28;20027;-76
2021/05/03 01:53:03;;;;;;;5.43;3.22;;;333.70;1766.40;;;;;;5098371;28;20056;-76
2021/05/03 01:55:29;;;;;;;7.10;3.22;;;358.50;1740.80;;;;;;5100186;28;20032;-78
2021/05/03 01:57:55;;;;;;;4.20;2.90;;;358.50;1766.40;;;;;;5097081;28;20402;-76
2021/05/03 02:00:21;;;;;;;5.30;3.63;;;358.50;1792.00;;;;;;5093031;28;20028;-76
2021/05/03 02:02:48;;;;;;;8.45;3.30;;;358.80;1740.80;;;;;;5107624;28;20027;-75
2021/05/03 02:05:22;;;;;;;5.53;3.47;;;358.60;1740.80;;;;;;5099520;28;20019;-76
2021/05/03 02:08:05;;;;;;;5.47;3.40;;;358.60;1740.80;;;;;;5110436;28;20031;-75
2021/05/03 02:10:33;;;;;;;8.18;3.65;;;358.60;1766.40;;;;;;5105273;28;20024;-76
2021/05/03 02:13:00;;;;;;;4.75;3.10;;;358.70;1740.80;;;;;;5100570;28;20027;-76
2021/05/03 02:15:29;;;;;;;6.85;3.90;;;358.70;1766.40;;;;;;5099176;28;20031;-75
2021/05/03 02:17:55;;;;;;;4.75;3.40;;;358.50;1792.00;;;;;;5104857;28;20024;-75
2021/05/03 02:20:21;;;;;;;4.72;3.60;;;333.70;1792.00;;;;;;5122961;27;20039;-76
2021/05/03 02:22:47;;;;;;;5.38;3.10;;;358.50;1766.40;;;;;;5109240;28;20027;-76
2021/05/03 02:25:13;;;;;;;5.47;3.33;;;358.60;1766.40;;;;;;5094270;28;20039;-77
2021/05/03 02:27:40;;;;;;;4.80;3.05;;;358.80;1740.80;;;;;;5097092;28;20336;-76
2021/05/03 02:30:08;;;;;;;6.63;3.28;;;358.60;1766.40;;;;;;5104949;28;20026;-77
2021/05/03 02:32:35;;;;;;;6.55;3.10;;;358.80;1740.80;;;;;;5104818;28;20405;-77
2021/05/03 02:35:06;;;;;;;6.35;3.25;;;358.80;1715.20;;;;;;5107596;28;20164;-77
2021/05/03 02:37:32;;;;;;;4.90;2.90;;;358.80;1740.80;;;;;;5106682;28;20131;-76
2021/05/03 02:39:57;;;;;;;5.68;3.00;;;358.80;1740.80;;;;;;5108629;28;20449;-75
2021/05/03 02:42:23;;;;;;;4.10;3.00;;;358.80;1766.40;;;;;;5108301;28;20031;-75
2021/05/03 02:44:49;;;;;;;4.72;3.22;;;358.50;1792.00;;;;;;5105651;28;20028;-74
2021/05/03 02:47:15;;;;;;;5.45;3.67;;;333.60;1817.60;;;;;;5108893;28;20055;-75
2021/05/03 02:49:40;;;;;;;4.88;3.13;;;333.50;1843.20;;;;;;5107482;28;20020;-76
2021/05/03 02:52:06;;;;;;;4.70;3.33;;;333.50;2329.60;;;;;;5110165;28;20487;-75
2021/05/03 02:54:32;;;;;;;4.15;2.90;;;333.40;1843.20;;;;;;5110390;28;20360;-75
2021/05/03 02:56:58;;;;;;;5.20;3.20;;;333.30;1868.80;;;;;;5096631;28;20086;-76
2021/05/03 02:59:24;;;;;;;4.78;3.20;;;333.60;1843.20;;;;;;5100163;28;20030;-76
2021/05/03 03:01:49;;;;;;;8.23;3.47;;;333.70;1817.60;;;;;;5107752;28;20023;-76
2021/05/03 03:04:16;;;;;;;4.80;3.15;;;358.50;1817.60;;;;;;5107963;28;20015;-77
2021/05/03 03:06:42;;;;;;;4.28;2.92;;;358.50;1792.00;;;;;;5120638;28;20075;-76
2021/05/03 03:09:08;;;;;;;3.72;2.80;;;358.50;1792.00;;;;;;5095440;28;20425;-76
2021/05/03 03:11:34;;;;;;;4.25;3.13;;;358.40;1817.60;;;;;;5101846;28;20027;-76
2021/05/03 03:14:01;;;;;;;4.78;3.08;;;333.30;1868.80;;;;;;5110259;28;20012;-76
2021/05/03 03:16:27;;;;;;;4.10;3.00;;;333.60;1843.20;;;;;;5110401;28;20023;-76
2021/05/03 03:18:55;;;;;;;5.45;3.65;;;333.60;1843.20;;;;;;5119442;28;20042;-76
2021/05/03 03:21:21;;;;;;;7.00;3.30;;;333.60;1843.20;;;;;;5106424;28;20040;-76
2021/05/03 03:23:47;;;;;;;5.32;3.22;;;333.40;1843.20;;;;;;5097368;28;20016;-76
2021/05/03 03:26:14;;;;;;;4.20;2.97;;;333.60;1843.20;;;;;;5097862;28;20046;-75
2021/05/03 03:28:39;;;;;;;5.07;3.30;;;333.70;1817.60;;;;;;5103320;28;20023;-76
2021/05/03 03:31:05;;;;;;;5.60;3.70;;;358.40;1792.00;;;;;;5110603;28;20023;-77
2021/05/03 03:33:31;;;;;;;4.72;2.75;;;358.50;1792.00;;;;;;5111325;28;20030;-76
2021/05/03 03:35:57;;;;;;;6.25;3.55;;;358.70;1766.40;;;;;;5108172;28;20020;-76
2021/05/03 03:38:23;;;;;;;7.47;3.28;;;358.40;1817.60;;;;;;5126205;27;20414;-77
2021/05/03 03:40:49;;;;;;;4.57;3.30;;;358.60;1792.00;;;;;;5113868;28;20022;-76
2021/05/03 03:43:15;;;;;;;5.43;3.42;;;358.60;1792.00;;;;;;5110000;28;20019;-75
2021/05/03 03:45:41;;;;;;;6.30;3.25;;;358.60;1792.00;;;;;;5111799;28;20069;-76
2021/05/03 03:48:07;;;;;;;5.93;4.05;;;358.50;1817.60;;;;;;5112919;28;20046;-76
2021/05/03 03:50:33;;;;;;;5.93;3.30;;;333.70;1843.20;;;;;;5099598;28;20104;-76
2021/05/03 03:52:59;;;;;;;6.10;3.45;;;333.70;1843.20;;;;;;5100100;28;20024;-76
2021/05/03 03:55:26;;;;;;;4.82;3.80;;;358.50;1817.60;;;;;;5124314;27;20487;-77
2021/05/03 03:57:52;;;;;;;5.03;3.58;;;333.60;1843.20;;;;;;5110276;28;20051;-75
2021/05/03 04:00:18;;;;;;;5.68;4.03;;;333.70;1843.20;;;;;;5101345;28;20047;-74
2021/05/03 04:02:46;;;;;;;6.13;3.70;;;358.40;1843.20;;;;;;5113365;27;20054;-75
2021/05/03 04:05:57;;;;;;;7.10;4.22;;;358.50;1817.60;;;;;;5112528;28;20076;-75
2021/05/03 04:13:48;;;;;;;7.20;3.95;;;358.50;1792.00;;;;;;5114519;28;20019;-74
2021/05/03 04:26:55;;;;;;;4.90;3.38;;;333.70;1792.00;;;;;;5049919;28;20218;-74
2021/05/03 04:29:21;;;;;;;5.72;3.45;;;358.40;1817.60;;;;;;5049826;28;20568;-75
2021/05/03 04:31:48;;;;;;;5.68;4.07;;;358.50;1792.00;;;;;;5050052;28;20120;-76
2021/05/03 04:34:14;;;;;;;6.55;3.80;;;358.40;1817.60;;;;;;5030881;28;20381;-74
2021/05/03 04:36:40;;;;;;;5.13;3.55;;;358.50;1792.00;;;;;;5031638;28;20111;-74
2021/05/03 04:39:06;;;;;;;6.95;4.53;;;358.40;1792.00;;;;;;5049761;28;20120;-75
2021/05/03 04:41:31;;;;;;;8.55;4.25;;;358.40;1817.60;;;;;;5032880;28;20037;-74
2021/05/03 04:43:57;;;;;;;7.20;4.47;;;358.50;1792.00;;;;;;5049034;28;20035;-74
2021/05/03 04:46:23;;;;;;;7.15;4.53;;;358.60;1792.00;;;;;;5049078;28;20474;-74
2021/05/03 04:48:49;;;;;;;7.05;4.85;;;358.60;1792.00;;;;;;5032569;28;20055;-75
2021/05/03 04:51:15;;;;;;;8.15;4.90;;;358.50;1817.60;;;;;;5048404;28;20055;-76
2021/05/03 04:53:41;;;;;;;5.65;4.30;;;358.50;1792.00;;;;;;5030374;28;20040;-75
2021/05/03 04:56:07;;;;;;;9.10;4.47;;;358.50;1792.00;;;;;;5049104;28;20135;-75
2021/05/03 04:58:32;;;;;;;6.05;4.25;;;358.40;1843.20;;;;;;5049517;28;20029;-75
2021/05/03 05:00:58;;;;;;;7.45;4.20;;;333.70;1843.20;;;;;;5030227;28;20127;-75
2021/05/03 05:03:24;;;;;;;6.57;4.57;;;358.40;1843.20;;;;;;5075877;28;20051;-76
2021/05/03 05:05:52;;;;;;;5.60;4.32;;;358.60;1792.00;;;;;;5104801;28;20020;-75
2021/05/03 05:08:18;;;;;;;5.85;4.63;;;358.50;1817.60;;;;;;5111459;28;20027;-74
2021/05/03 05:10:45;;;;;;;7.38;5.13;;;358.60;1817.60;;;;;;5109798;28;20055;-75
2021/05/03 05:13:10;;;;;;;7.40;4.32;;;358.80;1792.00;;;;;;5113451;28;20057;-76
2021/05/03 05:15:36;;;;;;;7.63;5.47;;;358.80;1740.80;;;;;;5113114;28;20662;-76
2021/05/03 05:18:02;;;;;;;7.18;5.63;;;358.80;1740.80;;;;;;5093149;28;20038;-77
2021/05/03 05:20:28;;;;;;;7.18;4.70;;;358.60;1766.40;;;;;;5104149;28;20391;-77
2021/05/03 05:22:54;;;;;;;6.82;4.63;;;358.50;1792.00;;;;;;5111557;28;20031;-77
2021/05/03 05:25:19;;;;;;;6.63;4.75;;;333.60;1766.40;;;;;;5126563;27;20103;-76
2021/05/03 05:27:45;;;;;;;7.88;5.50;;;333.70;1817.60;;;;;;5112393;28;20020;-78
2021/05/03 05:30:12;;;;;;;8.15;5.80;;;358.40;1792.00;;;;;;5113256;28;20124;-78
2021/05/03 05:32:37;;;;;;;7.20;5.03;;;333.60;1817.60;;;;;;5097076;28;20024;-76
2021/05/03 05:35:03;;;;;;;8.20;5.63;;;333.60;1817.60;;;;;;5109881;28;20036;-76
2021/05/03 05:37:29;;;;;;;10.02;6.22;;;333.70;1792.00;;;;;;5095683;28;20030;-77
2021/05/03 05:39:55;;;;;;;6.93;5.28;;;358.60;1766.40;;;;;;5111819;28;20399;-78
2021/05/03 05:42:21;;;;;;;9.40;6.32;;;358.40;1792.00;;;;;;5102842;28;20040;-77
2021/05/03 05:44:47;;;;;;;7.68;5.75;;;358.50;1792.00;;;;;;5112450;28;20056;-78
2021/05/03 05:47:12;;;;;;;15.18;6.65;;;358.50;1792.00;;;;;;5109636;28;20026;-77
2021/05/03 05:49:38;;;;;;;8.18;5.90;;;333.70;1792.00;;;;;;5108102;28;20024;-75
2021/05/03 05:52:04;;;;;;;8.73;5.82;;;333.70;1817.60;;;;;;5110363;28;20055;-76
2021/05/03 05:54:30;;;;;;;8.35;6.43;;;358.50;1817.60;;;;;;5101610;28;20024;-77
2021/05/03 05:56:56;;;;;;;8.95;6.78;;;358.60;1792.00;;;;;;5106216;28;20416;-77
2021/05/03 05:59:23;;;;;;;9.05;6.43;;;358.60;1766.40;;;;;;5103443;28;20383;-74
2021/05/03 06:01:49;;;;;;;8.63;6.75;;;358.60;1817.60;;;;;;5105110;28;20039;-74
2021/05/03 06:04:15;;;;;;;9.88;6.28;;;358.50;1740.80;;;;;;5105302;28;20068;-75
2021/05/03 06:06:41;;;;;;;9.93;6.38;;;358.40;1766.40;;;;;;5106332;28;20032;-77
2021/05/03 06:09:07;;;;;;;9.48;7.00;;;358.40;1766.40;;;;;;5107424;28;20030;-77
2021/05/03 06:11:32;;;;;;;8.23;6.15;;;358.40;1792.00;;;;;;5106277;28;20106;-76
2021/05/03 06:13:58;;;;;;;8.93;6.30;;;358.40;1766.40;;;;;;5105550;28;20507;-76
2021/05/03 06:16:24;;;;;;;9.70;6.18;;;358.50;1766.40;;;;;;5124530;27;20027;-75
2021/05/03 06:18:50;;;;;;;9.23;6.28;;;358.60;1766.40;;;;;;5106416;28;20502;-77
2021/05/03 06:21:15;;;;;;;8.00;5.35;;;358.70;1740.80;;;;;;5111727;28;20035;-77
2021/05/03 06:23:41;;;;;;;9.05;5.82;;;358.90;1740.80;;;;;;5111939;28;20031;-78
2021/05/03 06:26:07;;;;;;;15.68;9.95;;;358.90;1715.20;;;;;;5111737;28;20027;-78
2021/05/03 06:28:33;;;;;;;9.43;7.10;;;359.00;1740.80;;;;;;5111843;28;20047;-76
2021/05/03 06:30:59;;;;;;;15.68;9.00;;;359.00;1715.20;;;;;;5122481;27;20074;-75
2021/05/03 06:33:26;;;;;;;10.32;7.15;;;359.10;1715.20;;;;;;5093205;28;20038;-76
2021/05/03 06:35:52;;;;;;;11.02;8.95;;;359.20;1689.60;;;;;;5102889;28;20028;-78
2021/05/03 06:38:18;;;;;;;12.68;9.32;;;359.10;1689.60;;;;;;5095096;28;20530;-78
2021/05/03 06:40:44;;;;;;;10.43;7.07;;;359.30;1664.00;;;;;;5099246;28;20017;-80
2021/05/03 06:43:10;;;;;;;13.35;9.60;;;384.20;1638.40;;;;;;5101694;28;20039;-80
2021/05/03 06:45:36;;;;;;;11.70;8.70;;;384.50;1612.80;;;;;;5103646;28;20031;-78
2021/05/03 06:48:03;;;;;;;9.63;7.28;;;384.40;1612.80;;;;;;5110281;28;20023;-78
2021/05/03 06:50:29;;;;;;;14.23;9.15;;;384.50;1612.80;;;;;;5100930;28;20404;-78
2021/05/03 06:52:55;;;;;;;13.15;9.00;;;384.80;1561.60;;;;;;5107477;28;20134;-77
2021/05/03 06:55:21;;;;;;;10.57;6.88;;;384.90;1561.60;;;;;;5107033;28;20107;-78
2021/05/03 06:57:47;;;;;;;8.95;7.07;;;384.70;1536.00;;;;;;5098727;28;20372;-78
2021/05/03 07:00:14;;;;;;;8.05;6.55;;;384.80;1510.40;;;;;;5090261;28;20468;-79
2021/05/03 07:02:41;;;;;;;13.57;8.60;;;384.80;1536.00;;;;;;5098175;28;20054;-81
2021/05/03 07:05:08;;;;;;;11.20;7.05;;;384.90;1510.40;;;;;;5110424;28;20019;-77
2021/05/03 07:07:34;;;;;;;8.82;5.78;;;409.90;1536.00;;;;;;5096988;28;20084;-78
2021/05/03 07:10:00;;;;;;;8.77;6.03;;;409.90;1510.40;;;;;;5097999;28;20460;-77
2021/05/03 07:12:26;;;;;;;7.05;5.50;;;409.70;1484.80;;;;;;5111203;28;20023;-77
2021/05/03 07:14:52;;;;;;;9.13;5.65;;;409.90;1484.80;;;;;;5103892;28;20024;-76
2021/05/03 07:17:18;;;;;;;9.77;6.07;;;410.00;1484.80;;;;;;5112282;28;20036;-77
2021/05/03 07:19:44;;;;;;;7.35;4.95;;;410.20;1433.60;;;;;;5095580;28;20035;-79
2021/05/03 07:22:11;;;;;;;9.23;5.20;;;410.40;1433.60;;;;;;5094804;28;20429;-77
2021/05/03 07:24:41;;;;;;;10.10;6.43;;;410.00;1433.60;;;;;;5094908;28;20067;-77
2021/05/03 07:27:09;;;;;;;9.25;6.53;;;410.10;1433.60;;;;;;5095179;28;20465;-79
2021/05/03 07:29:35;;;;;;;12.27;6.93;;;410.30;1408.00;;;;;;5106224;28;20106;-76
2021/05/03 07:32:01;;;;;;;16.13;7.22;;;410.40;1382.40;;;;;;5111816;28;20027;-82
2021/05/03 07:34:27;;;;;;;9.90;6.22;;;410.50;1382.40;;;;;;5110513;28;20020;-81
2021/05/03 07:36:52;;;;;;;6.72;5.00;;;410.40;1356.80;;;;;;5109277;28;20088;-82
2021/05/03 07:39:18;;;;;;;5.95;4.45;;;410.30;1382.40;;;;;;5106274;28;20051;-79
2021/05/03 07:41:44;;;;;;;6.63;4.43;;;410.40;1280.00;;;;;;5106879;28;20480;-80
2021/05/03 07:44:10;;;;;;;7.28;3.88;;;410.50;1254.40;;;;;;5114343;28;20023;-81
2021/05/03 07:46:37;;;;;;;10.65;4.35;;;435.30;1254.40;;;;;;5106394;28;20035;-82
2021/05/03 07:49:04;;;;;;;11.88;5.85;;;435.30;1280.00;;;;;;5114154;28;20027;-80
2021/05/03 07:51:29;;;;;;;5.32;3.83;;;435.60;1254.40;;;;;;5115945;27;20048;-81
2021/05/03 07:53:56;;;;;;;6.40;4.43;;;435.40;1254.40;;;;;;5114029;28;20072;-81
2021/05/03 07:56:22;;;;;;;6.10;4.28;;;435.60;1305.60;;;;;;5100113;28;20087;-85
2021/05/03 07:58:49;;;;;;;12.38;5.47;;;435.80;1254.40;;;;;;5108661;28;20027;-78
2021/05/03 08:01:16;;;;;;;7.35;4.63;;;435.80;1228.80;;;;;;5103004;28;20034;-81
2021/05/03 08:03:43;;;;;;;6.75;4.80;;;435.90;1203.20;;;;;;5097353;27;20031;-76
2021/05/03 08:06:14;;;;;;;5.30;3.78;;;435.90;1228.80;;;;;;5103685;28;20490;-76
2021/05/03 08:08:45;;;;;;;7.00;4.35;;;436.00;1254.40;;;;;;5107516;28;20133;-76
2021/05/03 08:11:12;;;;;;;5.75;4.13;;;436.10;1228.80;;;;;;5112516;28;20031;-78
2021/05/03 08:13:40;;;;;;;4.72;3.25;;;436.10;1280.00;;;;;;5110567;28;20024;-77
2021/05/03 08:16:09;;;;;;;7.15;3.88;;;460.90;1152.00;;;;;;5107941;28;20116;-76
2021/05/03 08:18:35;;;;;;;4.93;3.50;;;460.80;1152.00;;;;;;5110467;28;20022;-76
2021/05/03 08:21:01;;;;;;;3.85;2.80;;;460.90;1152.00;;;;;;5107124;28;20115;-77
2021/05/03 08:23:27;;;;;;;3.58;2.78;;;461.00;1152.00;;;;;;5110425;28;20128;-80
2021/05/03 08:25:54;;;;;;;7.00;3.95;;;460.80;1100.80;;;;;;5106119;28;20479;-77
2021/05/03 08:28:20;;;;;;;5.78;3.47;;;461.00;1126.40;;;;;;5101520;28;20020;-78
2021/05/03 08:30:47;;;;;;;5.78;3.38;;;460.90;1152.00;;;;;;5100966;28;20081;-79
2021/05/03 08:33:14;;;;;;;5.53;3.50;;;461.10;1126.40;;;;;;5110343;28;20111;-81
2021/05/03 08:35:41;;;;;;;4.60;3.03;;;461.10;1126.40;;;;;;5112007;28;20077;-77
2021/05/03 08:38:06;;;;;;;5.10;3.10;;;460.80;1100.80;;;;;;5094577;28;20073;-80
2021/05/03 08:40:33;;;;;;;5.55;3.05;;;461.10;1126.40;;;;;;5101367;28;20392;-76
2021/05/03 08:43:04;;;;;;;6.85;3.97;;;461.40;1100.80;;;;;;5105291;28;20317;-89
2021/05/03 08:45:31;;;;;;;5.05;3.08;;;461.50;947.20;;;;;;5106793;28;20024;-79
2021/05/03 08:48:04;;;;;;;10.02;5.05;;;461.40;998.40;;;;;;5104536;28;20182;-80
2021/05/03 08:50:55;;;;;;;5.53;3.17;;;461.50;972.80;;;;;;5111573;27;20133;-78
2021/05/03 08:53:30;;;;;;;5.15;3.10;;;461.50;972.80;;;;;;5108584;28;20047;-77
2021/05/03 08:55:56;;;;;;;6.38;3.22;;;461.50;972.80;;;;;;5100796;28;20062;-80
2021/05/03 08:58:22;;;;;;;4.13;3.25;;;461.70;972.80;;;;;;5103857;28;20515;-78
2021/05/03 09:00:48;;;;;;;7.90;3.33;;;461.70;972.80;;;;;;5109431;28;20027;-83
2021/05/03 09:03:15;;;;;;;8.48;3.55;;;461.70;998.40;;;;;;5109975;28;20031;-76
2021/05/03 09:05:42;;;;;;;7.20;4.03;;;461.70;998.40;;;;;;5104363;28;20028;-80
2021/05/03 09:08:09;;;;;;;7.20;4.43;;;486.40;972.80;;;;;;5109845;28;20090;-77
2021/05/03 09:10:45;;;;;;;6.90;4.13;;;486.50;972.80;;;;;;5109088;28;20077;-81
2021/05/03 09:13:12;;;;;;;5.35;3.92;;;486.60;1024.00;;;;;;5098934;28;20115;-78
2021/05/03 09:15:38;;;;;;;7.45;4.13;;;486.70;998.40;;;;;;5100921;28;20111;-79
2021/05/03 09:18:04;;;;;;;6.20;3.83;;;486.80;998.40;;;;;;5107629;28;20052;-80
2021/05/03 09:20:31;;;;;;;6.93;3.55;;;487.10;947.20;;;;;;5107770;28;20035;-76
2021/05/03 09:25:39;;;;;;;7.60;4.00;;;487.00;947.20;;;;;;5104407;28;20502;-81
2021/05/03 09:28:19;;;;;;;7.30;4.70;;;487.20;947.20;;;;;;5101343;28;20550;-81
2021/05/03 09:30:50;;;;;;;9.60;5.68;;;487.20;947.20;;;;;;5105185;28;20060;-82
2021/05/03 09:33:35;;;;;;;7.30;4.07;;;487.30;947.20;;;;;;5106733;28;20134;-81
2021/05/03 09:36:07;;;;;;;8.57;3.90;;;487.30;972.80;;;;;;5101110;28;20024;-80
2021/05/03 09:38:47;;;;;;;8.40;4.00;;;512.00;947.20;;;;;;5098477;28;20047;-81
2021/05/03 09:41:21;;;;;;;7.32;4.50;;;487.20;972.80;;;;;;5108416;28;20024;-78
2021/05/03 09:43:47;;;;;;;5.82;4.28;;;512.10;972.80;;;;;;5098101;27;20020;-78
2021/05/03 09:46:33;;;;;;;14.85;4.30;;;512.30;896.00;;;;;;5100404;28;20051;-79
2021/05/03 09:49:20;;;;;;;6.50;3.63;;;512.40;896.00;;;;;;5107577;28;20103;-78
2021/05/03 09:51:52;;;;;;;6.90;3.78;;;512.20;921.60;;;;;;5110641;28;20043;-78
2021/05/03 09:54:27;;;;;;;5.18;3.53;;;512.00;947.20;;;;;;5102900;28;20040;-76
2021/05/03 09:57:06;;;;;;;4.40;2.75;;;487.30;896.00;;;;;;5108916;28;20023;-77
2021/05/03 09:59:48;;;;;;;5.18;3.72;;;487.20;921.60;;;;;;5106826;28;20028;-79
2021/05/03 10:02:26;;;;;;;4.43;3.28;;;487.20;870.40;;;;;;5097031;28;20032;-77
2021/05/03 10:05:15;;;;;;;4.63;3.00;;;487.30;870.40;;;;;;5111249;28;20034;-81
2021/05/03 10:07:43;;;;;;;9.35;3.95;;;487.10;896.00;;;;;;5092584;28;20095;-79
2021/05/03 10:12:37;;;;;;;5.18;3.38;;;486.80;896.00;;;;;;5091579;28;20055;-88
2021/05/03 10:15:08;;;;;;;7.72;3.55;;;487.00;896.00;;;;;;5106310;28;20019;-85
2021/05/03 10:17:36;;;;;;;4.82;3.75;;;512.00;870.40;;;;;;5096020;28;20498;-83
2021/05/03 10:20:04;;;;;;;5.32;3.15;;;512.40;844.80;;;;;;5105290;28;20126;-78
2021/05/03 10:22:30;;;;;;;5.50;3.40;;;512.60;768.00;;;;;;5108083;28;20069;-81
2021/05/03 10:25:04;;;;;;;4.63;2.90;;;512.10;793.60;;;;;;5110063;28;20031;-77
2021/05/03 10:27:32;;;;;;;6.68;3.38;;;512.60;844.80;;;;;;5110768;28;20038;-78
2021/05/03 10:30:11;;;;;;;5.85;3.20;;;537.60;819.20;;;;;;5111000;28;20031;-78
2021/05/03 10:32:38;;;;;;;7.70;4.28;;;537.60;844.80;;;;;;5107112;28;20077;-78
2021/05/03 10:35:06;;;;;;;8.88;3.97;;;537.60;870.40;;;;;;5110351;28;20032;-75
2021/05/03 10:37:32;;;;;;;8.82;3.30;;;537.90;870.40;;;;;;5092793;28;20037;-76
2021/05/03 10:40:00;;;;;;;5.40;3.67;;;512.90;793.60;;;;;;5100012;28;20016;-78
2021/05/03 10:42:26;;;;;;;3.88;2.97;;;537.80;819.20;;;;;;5100706;28;20036;-77
2021/05/03 10:45:08;;;;;;;5.97;3.30;;;538.10;844.80;;;;;;5096846;28;20020;-77
2021/05/03 10:47:45;;;;;;;6.75;3.28;;;538.30;768.00;;;;;;5100712;28;20015;-82
2021/05/03 10:50:25;;;;;;;4.20;2.50;;;538.40;819.20;;;;;;5106547;28;20554;-76
2021/05/03 10:52:52;;;;;;;6.32;3.35;;;538.50;844.80;;;;;;5100526;28;20070;-78
2021/05/03 10:55:18;;;;;;;4.97;2.90;;;563.20;819.20;;;;;;5096176;28;20024;-78
2021/05/03 10:57:58;;;;;;;4.22;2.72;;;563.30;793.60;;;;;;5100167;28;20076;-79
2021/05/03 11:00:32;;;;;;;5.05;2.40;;;538.50;793.60;;;;;;5090706;28;20019;-75
2021/05/03 11:02:58;;;;;;;4.68;2.75;;;538.10;793.60;;;;;;5090877;28;20042;-79
2021/05/03 11:05:30;;;;;;;6.07;2.70;;;538.50;793.60;;;;;;5090948;28;20028;-78
2021/05/03 11:08:05;;;;;;;3.47;2.13;;;538.30;793.60;;;;;;5099783;28;20027;-78
2021/05/03 11:10:55;;;;;;;6.28;2.47;;;538.50;819.20;;;;;;5094959;28;20066;-77
2021/05/03 11:13:39;;;;;;;6.18;3.20;;;538.00;819.20;;;;;;5091738;28;20030;-76
2021/05/03 11:16:28;;;;;;;9.20;3.40;;;538.40;768.00;;;;;;5096359;28;20449;-77
2021/05/03 11:19:00;;;;;;;4.28;2.75;;;538.50;819.20;;;;;;5086905;28;20038;-76
2021/05/03 11:21:42;;;;;;;6.97;3.35;;;563.30;819.20;;;;;;5103708;28;20063;-75
2021/05/03 11:24:40;;;;;;;5.80;3.42;;;538.40;768.00;;;;;;5094923;28;20081;-77
2021/05/03 11:27:09;;;;;;;5.70;2.65;;;538.00;793.60;;;;;;5104787;28;20092;-77
2021/05/03 11:32:07;;;;;;;3.45;2.53;;;538.40;742.40;;;;;;5099459;28;20696;-81
2021/05/03 11:34:38;;;;;;;5.10;2.70;;;538.40;768.00;;;;;;5107870;28;20019;-77
2021/05/03 11:37:10;;;;;;;3.88;2.60;;;563.40;742.40;;;;;;5110571;28;20383;-75
2021/05/03 11:44:57;;;;;;;6.70;3.17;;;538.40;742.40;;;;;;5092017;28;20012;-80
2021/05/03 11:47:34;;;;;;;6.50;2.92;;;538.20;819.20;;;;;;5101045;28;20047;-79
2021/05/03 11:50:01;;;;;;;4.07;2.92;;;538.30;793.60;;;;;;5099231;28;20047;-75
2021/05/03 11:52:38;;;;;;;5.80;3.00;;;563.20;768.00;;;;;;5100670;28;20119;-76
2021/05/03 11:55:12;;;;;;;5.00;2.60;;;538.50;742.40;;;;;;5102236;28;20424;-76
2021/05/03 11:57:43;;;;;;;6.70;2.78;;;563.20;793.60;;;;;;5109200;28;20024;-77
2021/05/03 12:00:11;;;;;;;4.95;3.08;;;563.20;768.00;;;;;;5109031;28;20046;-78
2021/05/03 12:02:40;;;;;;;5.68;2.97;;;538.50;716.80;;;;;;5099790;28;20028;-81
2021/05/03 12:05:19;;;;;;;7.13;3.35;;;563.30;742.40;;;;;;5110129;28;20031;-77
2021/05/03 12:07:46;;;;;;;6.07;3.60;;;563.20;768.00;;;;;;5113140;28;20443;-82
2021/05/03 12:10:16;;;;;;;4.47;2.70;;;538.50;793.60;;;;;;5098842;28;20107;-78
2021/05/03 12:12:43;;;;;;;6.40;2.40;;;563.50;742.40;;;;;;5109556;28;20039;-78
2021/05/03 12:15:15;;;;;;;5.68;2.70;;;563.60;793.60;;;;;;5109911;28;20039;-76
2021/05/03 12:17:41;;;;;;;3.85;2.53;;;538.50;793.60;;;;;;5112064;28;20518;-79
2021/05/03 12:20:08;;;;;;;3.45;2.22;;;538.20;716.80;;;;;;5114237;28;20557;-80
2021/05/03 12:22:34;;;;;;;4.43;2.47;;;538.20;768.00;;;;;;5114496;28;20486;-79
2021/05/03 12:25:10;;;;;;;4.22;2.17;;;538.40;716.80;;;;;;5106153;28;20027;-82
2021/05/03 12:27:37;;;;;;;4.03;2.30;;;563.20;742.40;;;;;;5098597;28;20044;-81
2021/05/03 12:30:06;;;;;;;4.13;2.55;;;563.40;768.00;;;;;;5108086;28;20520;-83
2021/05/03 12:32:34;;;;;;;5.22;2.70;;;563.20;742.40;;;;;;5099082;28;20025;-78
2021/05/03 12:35:09;;;;;;;4.95;2.67;;;563.30;768.00;;;;;;5107166;28;20023;-82
2021/05/03 12:37:38;;;;;;;5.97;2.70;;;563.60;716.80;;;;;;5096519;28;20020;-82
2021/05/03 12:40:09;;;;;;;5.25;2.80;;;563.60;716.80;;;;;;5105598;28;20031;-81
2021/05/03 12:42:42;;;;;;;4.38;2.70;;;563.60;716.80;;;;;;5094414;28;20082;-76
2021/05/03 12:45:11;;;;;;;4.20;2.63;;;564.00;742.40;;;;;;5110320;28;20019;-76
2021/05/03 12:48:04;;;;;;;7.85;3.15;;;563.50;742.40;;;;;;5108658;28;20020;-78
2021/05/03 12:56:55;;;;;;;4.45;2.80;;;563.30;768.00;;;;;;5098923;28;20049;-77
2021/05/03 13:01:43;;;;;;;5.18;2.65;;;563.30;742.40;;;;;;5094212;28;20047;-81